sensor_id;sensor_type;location;lat;lon;timestamp;temperature;humidity
24636;DHT22;12772;49.794;10.024;2022-09-09T00:02:51;20.20;42.10
24636;DHT22;12772;49.794;10.024;2022-09-09T00:11:51;20.00;42.30
24636;DHT22;12772;49.794;10.024;2022-09-09T00:16:16;20.00;42.80
24636;DHT22;12772;49.794;10.024;2022-09-09T00:24:44;19.90;42.80
24636;DHT22;12772;49.794;10.024;2022-09-09T00:33:01;19.70;42.90
24636;DHT22;12772;49.794;10.024;2022-09-09T00:37:03;19.60;43.30
24636;DHT22;12772;49.794;10.024;2022-09-09T00:50:45;19.20;47.30
24636;DHT22;12772;49.794;10.024;2022-09-09T00:59:03;19.20;48.00
24636;DHT22;12772;49.794;10.024;2022-09-09T01:07:44;19.30;48.10
24636;DHT22;12772;49.794;10.024;2022-09-09T01:12:09;19.30;48.00
24636;DHT22;12772;49.794;10.024;2022-09-09T01:16:14;19.40;48.10
24636;DHT22;12772;49.794;10.024;2022-09-09T01:24:40;19.40;47.80
24636;DHT22;12772;49.794;10.024;2022-09-09T01:28:49;19.40;48.00
24636;DHT22;12772;49.794;10.024;2022-09-09T01:32:56;19.30;47.40
24636;DHT22;12772;49.794;10.024;2022-09-09T01:37:03;19.30;47.40
24636;DHT22;12772;49.794;10.024;2022-09-09T01:41:06;19.40;47.60
24636;DHT22;12772;49.794;10.024;2022-09-09T01:45:08;19.40;46.90
24636;DHT22;12772;49.794;10.024;2022-09-09T01:49:11;19.40;47.00
24636;DHT22;12772;49.794;10.024;2022-09-09T01:53:14;19.40;47.20
24636;DHT22;12772;49.794;10.024;2022-09-09T01:57:39;19.30;47.30
24636;DHT22;12772;49.794;10.024;2022-09-09T02:09:58;19.30;47.90
24636;DHT22;12772;49.794;10.024;2022-09-09T02:14:07;19.30;48.00
24636;DHT22;12772;49.794;10.024;2022-09-09T02:18:12;19.30;48.10
24636;DHT22;12772;49.794;10.024;2022-09-09T02:22:17;19.30;48.30
24636;DHT22;12772;49.794;10.024;2022-09-09T02:26:22;19.20;48.10
24636;DHT22;12772;49.794;10.024;2022-09-09T02:30:24;19.10;48.10
24636;DHT22;12772;49.794;10.024;2022-09-09T02:34:27;19.10;48.20
24636;DHT22;12772;49.794;10.024;2022-09-09T02:38:34;19.00;48.00
24636;DHT22;12772;49.794;10.024;2022-09-09T02:42:41;19.00;48.00
24636;DHT22;12772;49.794;10.024;2022-09-09T02:47:03;19.00;47.80
24636;DHT22;12772;49.794;10.024;2022-09-09T02:51:24;19.00;47.60
24636;DHT22;12772;49.794;10.024;2022-09-09T02:55:46;19.00;47.60
24636;DHT22;12772;49.794;10.024;2022-09-09T02:59:49;19.10;47.60
24636;DHT22;12772;49.794;10.024;2022-09-09T03:03:52;19.20;47.30
24636;DHT22;12772;49.794;10.024;2022-09-09T03:07:55;19.30;47.40
24636;DHT22;12772;49.794;10.024;2022-09-09T03:11:58;19.30;47.00
24636;DHT22;12772;49.794;10.024;2022-09-09T03:16:01;19.30;46.80
24636;DHT22;12772;49.794;10.024;2022-09-09T03:20:05;19.30;46.50
24636;DHT22;12772;49.794;10.024;2022-09-09T03:24:08;19.30;46.70
24636;DHT22;12772;49.794;10.024;2022-09-09T03:28:10;19.20;46.70
24636;DHT22;12772;49.794;10.024;2022-09-09T03:32:12;19.20;46.80
24636;DHT22;12772;49.794;10.024;2022-09-09T03:36:18;19.10;46.80
24636;DHT22;12772;49.794;10.024;2022-09-09T03:40:20;19.10;47.20
24636;DHT22;12772;49.794;10.024;2022-09-09T03:44:22;19.10;47.20
24636;DHT22;12772;49.794;10.024;2022-09-09T03:48:25;19.10;47.90
24636;DHT22;12772;49.794;10.024;2022-09-09T03:52:28;19.10;47.90
24636;DHT22;12772;49.794;10.024;2022-09-09T03:56:31;19.10;48.10
24636;DHT22;12772;49.794;10.024;2022-09-09T04:00:33;19.10;48.00
24636;DHT22;12772;49.794;10.024;2022-09-09T04:04:35;19.20;48.00
24636;DHT22;12772;49.794;10.024;2022-09-09T04:08:37;19.20;47.90
24636;DHT22;12772;49.794;10.024;2022-09-09T04:12:40;19.30;47.90
24636;DHT22;12772;49.794;10.024;2022-09-09T04:16:42;19.30;48.10
24636;DHT22;12772;49.794;10.024;2022-09-09T04:20:49;19.40;48.50
24636;DHT22;12772;49.794;10.024;2022-09-09T04:24:51;19.40;48.30
24636;DHT22;12772;49.794;10.024;2022-09-09T04:28:53;19.40;48.40
24636;DHT22;12772;49.794;10.024;2022-09-09T04:32:56;19.30;48.20
24636;DHT22;12772;49.794;10.024;2022-09-09T04:36:59;19.30;47.40
24636;DHT22;12772;49.794;10.024;2022-09-09T04:41:02;19.20;47.20
24636;DHT22;12772;49.794;10.024;2022-09-09T04:45:05;19.10;47.20
24636;DHT22;12772;49.794;10.024;2022-09-09T04:49:07;19.10;47.20
24636;DHT22;12772;49.794;10.024;2022-09-09T04:53:09;19.00;47.10
24636;DHT22;12772;49.794;10.024;2022-09-09T04:57:11;19.00;47.40
24636;DHT22;12772;49.794;10.024;2022-09-09T05:01:16;18.90;47.60
24636;DHT22;12772;49.794;10.024;2022-09-09T05:05:18;18.80;47.80
24636;DHT22;12772;49.794;10.024;2022-09-09T05:09:21;18.80;48.00
24636;DHT22;12772;49.794;10.024;2022-09-09T05:13:23;18.80;48.10
24636;DHT22;12772;49.794;10.024;2022-09-09T05:17:25;18.80;48.40
24636;DHT22;12772;49.794;10.024;2022-09-09T05:21:28;18.80;48.40
24636;DHT22;12772;49.794;10.024;2022-09-09T05:25:31;18.80;48.60
24636;DHT22;12772;49.794;10.024;2022-09-09T05:29:34;18.80;48.60
24636;DHT22;12772;49.794;10.024;2022-09-09T05:33:36;18.80;49.50
24636;DHT22;12772;49.794;10.024;2022-09-09T05:37:41;18.80;48.80
24636;DHT22;12772;49.794;10.024;2022-09-09T05:41:43;18.80;49.00
24636;DHT22;12772;49.794;10.024;2022-09-09T05:45:48;18.80;49.00
24636;DHT22;12772;49.794;10.024;2022-09-09T05:49:50;18.90;49.10
24636;DHT22;12772;49.794;10.024;2022-09-09T05:53:52;18.90;48.90
24636;DHT22;12772;49.794;10.024;2022-09-09T05:57:55;18.90;49.00
24636;DHT22;12772;49.794;10.024;2022-09-09T06:01:57;18.90;49.00
24636;DHT22;12772;49.794;10.024;2022-09-09T06:06:01;19.00;49.00
24636;DHT22;12772;49.794;10.024;2022-09-09T06:10:06;19.00;48.90
24636;DHT22;12772;49.794;10.024;2022-09-09T06:14:08;19.00;48.90
24636;DHT22;12772;49.794;10.024;2022-09-09T06:18:10;19.10;49.10
24636;DHT22;12772;49.794;10.024;2022-09-09T06:22:12;19.10;49.10
24636;DHT22;12772;49.794;10.024;2022-09-09T06:26:17;19.10;49.20
24636;DHT22;12772;49.794;10.024;2022-09-09T06:30:19;19.20;49.40
24636;DHT22;12772;49.794;10.024;2022-09-09T06:34:21;19.10;49.10
24636;DHT22;12772;49.794;10.024;2022-09-09T06:38:24;19.10;49.10
24636;DHT22;12772;49.794;10.024;2022-09-09T06:42:26;19.10;49.20
24636;DHT22;12772;49.794;10.024;2022-09-09T06:46:30;19.00;49.30
24636;DHT22;12772;49.794;10.024;2022-09-09T06:50:33;19.10;49.40
24636;DHT22;12772;49.794;10.024;2022-09-09T06:54:36;19.00;49.30
24636;DHT22;12772;49.794;10.024;2022-09-09T06:58:40;19.00;49.50
24636;DHT22;12772;49.794;10.024;2022-09-09T07:02:43;19.00;49.60
24636;DHT22;12772;49.794;10.024;2022-09-09T07:06:46;19.10;49.70
24636;DHT22;12772;49.794;10.024;2022-09-09T07:10:48;19.10;49.50
24636;DHT22;12772;49.794;10.024;2022-09-09T07:14:50;19.10;49.40
24636;DHT22;12772;49.794;10.024;2022-09-09T07:18:52;19.20;49.50
24636;DHT22;12772;49.794;10.024;2022-09-09T07:22:58;19.30;49.90
24636;DHT22;12772;49.794;10.024;2022-09-09T07:27:00;19.50;49.60
24636;DHT22;12772;49.794;10.024;2022-09-09T07:31:04;19.60;49.30
24636;DHT22;12772;49.794;10.024;2022-09-09T07:35:07;19.80;49.00
24636;DHT22;12772;49.794;10.024;2022-09-09T07:39:11;19.90;48.30
24636;DHT22;12772;49.794;10.024;2022-09-09T07:43:13;20.00;48.20
24636;DHT22;12772;49.794;10.024;2022-09-09T07:47:19;20.10;48.30
24636;DHT22;12772;49.794;10.024;2022-09-09T07:51:27;20.30;48.10
24636;DHT22;12772;49.794;10.024;2022-09-09T07:55:29;20.40;47.70
24636;DHT22;12772;49.794;10.024;2022-09-09T07:59:31;20.50;47.50
24636;DHT22;12772;49.794;10.024;2022-09-09T08:03:34;20.60;47.20
24636;DHT22;12772;49.794;10.024;2022-09-09T08:07:36;20.70;46.80
24636;DHT22;12772;49.794;10.024;2022-09-09T08:11:39;20.80;46.80
24636;DHT22;12772;49.794;10.024;2022-09-09T08:15:41;20.80;46.70
24636;DHT22;12772;49.794;10.024;2022-09-09T08:19:44;20.80;46.60
24636;DHT22;12772;49.794;10.024;2022-09-09T08:23:46;20.90;46.80
24636;DHT22;12772;49.794;10.024;2022-09-09T08:27:49;21.00;46.30
24636;DHT22;12772;49.794;10.024;2022-09-09T08:31:54;21.10;46.30
24636;DHT22;12772;49.794;10.024;2022-09-09T08:35:57;21.20;45.80
24636;DHT22;12772;49.794;10.024;2022-09-09T08:39:59;21.40;45.70
24636;DHT22;12772;49.794;10.024;2022-09-09T08:52:55;21.70;43.50
24636;DHT22;12772;49.794;10.024;2022-09-09T08:56:59;21.80;43.40
24636;DHT22;12772;49.794;10.024;2022-09-09T09:05:33;21.90;43.40
24636;DHT22;12772;49.794;10.024;2022-09-09T09:13:57;22.20;43.70
24636;DHT22;12772;49.794;10.024;2022-09-09T09:18:03;22.30;43.70
24636;DHT22;12772;49.794;10.024;2022-09-09T09:22:21;22.40;43.00
24636;DHT22;12772;49.794;10.024;2022-09-09T09:26:31;22.60;43.00
24636;DHT22;12772;49.794;10.024;2022-09-09T09:30:39;22.70;42.80
24636;DHT22;12772;49.794;10.024;2022-09-09T09:34:42;22.90;41.20
24636;DHT22;12772;49.794;10.024;2022-09-09T09:38:56;23.00;40.90
24636;DHT22;12772;49.794;10.024;2022-09-09T09:43:01;23.20;40.40
24636;DHT22;12772;49.794;10.024;2022-09-09T09:47:15;23.30;39.40
24636;DHT22;12772;49.794;10.024;2022-09-09T09:51:18;23.40;38.80
24636;DHT22;12772;49.794;10.024;2022-09-09T09:55:23;23.50;38.00
24636;DHT22;12772;49.794;10.024;2022-09-09T09:59:33;23.60;38.10
24636;DHT22;12772;49.794;10.024;2022-09-09T10:03:35;23.60;38.10
24636;DHT22;12772;49.794;10.024;2022-09-09T10:07:41;23.60;37.90
24636;DHT22;12772;49.794;10.024;2022-09-09T10:16:21;23.80;37.60
24636;DHT22;12772;49.794;10.024;2022-09-09T10:20:54;23.90;37.40
24636;DHT22;12772;49.794;10.024;2022-09-09T10:29:32;24.40;36.60
24636;DHT22;12772;49.794;10.024;2022-09-09T10:34:10;24.70;35.80
24636;DHT22;12772;49.794;10.024;2022-09-09T10:38:33;25.00;34.50
24636;DHT22;12772;49.794;10.024;2022-09-09T10:42:39;25.20;34.20
24636;DHT22;12772;49.794;10.024;2022-09-09T10:55:42;24.90;32.30
24636;DHT22;12772;49.794;10.024;2022-09-09T10:59:48;24.10;33.20
24636;DHT22;12772;49.794;10.024;2022-09-09T11:03:56;23.20;35.40
24636;DHT22;12772;49.794;10.024;2022-09-09T11:12:19;22.10;38.20
24636;DHT22;12772;49.794;10.024;2022-09-09T11:20:23;21.60;40.00
24636;DHT22;12772;49.794;10.024;2022-09-09T11:28:53;21.40;40.00
24636;DHT22;12772;49.794;10.024;2022-09-09T11:42:19;22.10;38.60
24636;DHT22;12772;49.794;10.024;2022-09-09T11:46:33;22.40;38.30
24636;DHT22;12772;49.794;10.024;2022-09-09T11:50:37;22.80;38.10
24636;DHT22;12772;49.794;10.024;2022-09-09T11:54:49;23.10;37.50
24636;DHT22;12772;49.794;10.024;2022-09-09T11:59:05;23.50;37.20
24636;DHT22;12772;49.794;10.024;2022-09-09T12:03:41;23.80;35.30
24636;DHT22;12772;49.794;10.024;2022-09-09T12:07:58;24.10;34.20
24636;DHT22;12772;49.794;10.024;2022-09-09T12:12:22;24.50;34.10
24636;DHT22;12772;49.794;10.024;2022-09-09T12:20:36;24.90;32.30
24636;DHT22;12772;49.794;10.024;2022-09-09T12:25:06;25.10;33.10
24636;DHT22;12772;49.794;10.024;2022-09-09T12:33:21;25.50;32.50
24636;DHT22;12772;49.794;10.024;2022-09-09T12:37:44;25.50;32.80
24636;DHT22;12772;49.794;10.024;2022-09-09T12:41:53;25.50;33.90
24636;DHT22;12772;49.794;10.024;2022-09-09T12:46:06;25.40;32.70
24636;DHT22;12772;49.794;10.024;2022-09-09T12:50:22;25.30;32.70
24636;DHT22;12772;49.794;10.024;2022-09-09T12:54:26;25.10;32.50
24636;DHT22;12772;49.794;10.024;2022-09-09T12:58:30;25.10;37.70
24636;DHT22;12772;49.794;10.024;2022-09-09T13:02:33;25.10;38.90
24636;DHT22;12772;49.794;10.024;2022-09-09T13:06:35;25.20;36.80
24636;DHT22;12772;49.794;10.024;2022-09-09T13:10:48;25.30;36.30
24636;DHT22;12772;49.794;10.024;2022-09-09T13:14:53;25.40;34.60
24636;DHT22;12772;49.794;10.024;2022-09-09T13:18:58;25.40;33.50
24636;DHT22;12772;49.794;10.024;2022-09-09T13:23:00;25.40;33.40
24636;DHT22;12772;49.794;10.024;2022-09-09T13:27:05;25.30;32.70
24636;DHT22;12772;49.794;10.024;2022-09-09T13:35:30;25.10;33.70
24636;DHT22;12772;49.794;10.024;2022-09-09T13:39:34;24.90;33.80
24636;DHT22;12772;49.794;10.024;2022-09-09T13:43:42;24.90;34.00
24636;DHT22;12772;49.794;10.024;2022-09-09T13:47:44;24.70;33.50
24636;DHT22;12772;49.794;10.024;2022-09-09T13:51:49;24.70;32.10
24636;DHT22;12772;49.794;10.024;2022-09-09T13:55:51;24.60;31.90
24636;DHT22;12772;49.794;10.024;2022-09-09T13:59:54;24.60;32.00
24636;DHT22;12772;49.794;10.024;2022-09-09T14:03:57;24.50;31.80
24636;DHT22;12772;49.794;10.024;2022-09-09T14:08:00;24.50;31.10
24636;DHT22;12772;49.794;10.024;2022-09-09T14:12:02;24.40;30.70
24636;DHT22;12772;49.794;10.024;2022-09-09T14:16:05;24.30;30.40
24636;DHT22;12772;49.794;10.024;2022-09-09T14:20:08;24.20;31.50
24636;DHT22;12772;49.794;10.024;2022-09-09T14:24:12;24.10;32.90
24636;DHT22;12772;49.794;10.024;2022-09-09T14:28:15;23.90;34.70
24636;DHT22;12772;49.794;10.024;2022-09-09T14:32:17;23.80;35.60
24636;DHT22;12772;49.794;10.024;2022-09-09T14:36:19;23.60;35.80
24636;DHT22;12772;49.794;10.024;2022-09-09T14:40:21;23.50;36.70
24636;DHT22;12772;49.794;10.024;2022-09-09T14:44:23;23.50;36.70
24636;DHT22;12772;49.794;10.024;2022-09-09T14:48:25;23.60;37.50
24636;DHT22;12772;49.794;10.024;2022-09-09T14:52:27;23.60;36.50
24636;DHT22;12772;49.794;10.024;2022-09-09T14:56:32;23.60;35.80
24636;DHT22;12772;49.794;10.024;2022-09-09T15:00:35;23.60;35.40
24636;DHT22;12772;49.794;10.024;2022-09-09T15:04:37;23.50;35.20
24636;DHT22;12772;49.794;10.024;2022-09-09T15:08:41;23.10;36.10
24636;DHT22;12772;49.794;10.024;2022-09-09T15:12:44;22.70;37.70
24636;DHT22;12772;49.794;10.024;2022-09-09T15:16:46;22.40;39.40
24636;DHT22;12772;49.794;10.024;2022-09-09T15:20:48;22.20;39.40
24636;DHT22;12772;49.794;10.024;2022-09-09T15:24:51;22.10;39.70
24636;DHT22;12772;49.794;10.024;2022-09-09T15:28:54;22.00;40.30
24636;DHT22;12772;49.794;10.024;2022-09-09T15:32:59;22.00;40.80
24636;DHT22;12772;49.794;10.024;2022-09-09T15:37:02;22.00;41.00
24636;DHT22;12772;49.794;10.024;2022-09-09T15:41:04;22.00;41.50
24636;DHT22;12772;49.794;10.024;2022-09-09T15:45:07;22.00;41.70
24636;DHT22;12772;49.794;10.024;2022-09-09T15:49:17;22.10;41.20
24636;DHT22;12772;49.794;10.024;2022-09-09T15:53:20;22.20;40.40
24636;DHT22;12772;49.794;10.024;2022-09-09T15:57:22;22.20;39.90
24636;DHT22;12772;49.794;10.024;2022-09-09T16:01:28;22.30;39.40
24636;DHT22;12772;49.794;10.024;2022-09-09T16:05:35;22.40;39.50
24636;DHT22;12772;49.794;10.024;2022-09-09T16:09:37;22.50;39.10
24636;DHT22;12772;49.794;10.024;2022-09-09T16:13:39;22.60;38.90
24636;DHT22;12772;49.794;10.024;2022-09-09T16:17:41;22.70;38.40
24636;DHT22;12772;49.794;10.024;2022-09-09T16:21:46;22.80;38.10
24636;DHT22;12772;49.794;10.024;2022-09-09T16:25:54;22.80;37.70
24636;DHT22;12772;49.794;10.024;2022-09-09T16:29:56;22.90;37.30
24636;DHT22;12772;49.794;10.024;2022-09-09T16:33:58;22.90;36.60
24636;DHT22;12772;49.794;10.024;2022-09-09T16:38:01;22.90;36.40
24636;DHT22;12772;49.794;10.024;2022-09-09T16:42:03;22.80;35.30
24636;DHT22;12772;49.794;10.024;2022-09-09T16:46:16;22.70;34.40
24636;DHT22;12772;49.794;10.024;2022-09-09T16:50:19;22.50;34.90
24636;DHT22;12772;49.794;10.024;2022-09-09T16:54:21;22.30;35.30
24636;DHT22;12772;49.794;10.024;2022-09-09T16:58:25;22.10;35.60
24636;DHT22;12772;49.794;10.024;2022-09-09T17:02:27;22.00;36.20
24636;DHT22;12772;49.794;10.024;2022-09-09T17:06:30;21.90;36.20
24636;DHT22;12772;49.794;10.024;2022-09-09T17:10:33;21.80;36.60
24636;DHT22;12772;49.794;10.024;2022-09-09T17:14:36;21.80;37.10
24636;DHT22;12772;49.794;10.024;2022-09-09T17:18:38;21.80;37.40
24636;DHT22;12772;49.794;10.024;2022-09-09T17:22:40;21.70;37.50
24636;DHT22;12772;49.794;10.024;2022-09-09T17:26:42;21.70;37.70
24636;DHT22;12772;49.794;10.024;2022-09-09T17:30:45;21.80;38.00
24636;DHT22;12772;49.794;10.024;2022-09-09T17:34:49;21.70;37.90
24636;DHT22;12772;49.794;10.024;2022-09-09T17:38:52;21.60;38.20
24636;DHT22;12772;49.794;10.024;2022-09-09T17:42:55;21.60;38.40
24636;DHT22;12772;49.794;10.024;2022-09-09T17:46:57;21.60;38.50
24636;DHT22;12772;49.794;10.024;2022-09-09T17:51:00;21.50;38.60
24636;DHT22;12772;49.794;10.024;2022-09-09T17:55:02;21.50;38.80
24636;DHT22;12772;49.794;10.024;2022-09-09T17:59:06;21.40;38.90
24636;DHT22;12772;49.794;10.024;2022-09-09T18:03:08;21.50;39.30
24636;DHT22;12772;49.794;10.024;2022-09-09T18:07:10;21.40;39.10
24636;DHT22;12772;49.794;10.024;2022-09-09T18:11:14;21.40;39.40
24636;DHT22;12772;49.794;10.024;2022-09-09T18:15:16;21.40;39.60
24636;DHT22;12772;49.794;10.024;2022-09-09T18:19:21;21.40;39.70
24636;DHT22;12772;49.794;10.024;2022-09-09T18:23:23;21.40;39.70
24636;DHT22;12772;49.794;10.024;2022-09-09T18:27:25;21.30;39.80
24636;DHT22;12772;49.794;10.024;2022-09-09T18:31:29;21.40;40.00
24636;DHT22;12772;49.794;10.024;2022-09-09T18:35:31;21.30;39.80
24636;DHT22;12772;49.794;10.024;2022-09-09T18:39:36;21.30;39.90
24636;DHT22;12772;49.794;10.024;2022-09-09T18:43:38;21.20;40.00
24636;DHT22;12772;49.794;10.024;2022-09-09T18:47:40;21.20;40.10
24636;DHT22;12772;49.794;10.024;2022-09-09T18:51:43;21.20;40.00
24636;DHT22;12772;49.794;10.024;2022-09-09T18:55:46;21.10;40.10
24636;DHT22;12772;49.794;10.024;2022-09-09T18:59:58;21.10;40.20
24636;DHT22;12772;49.794;10.024;2022-09-09T19:04:02;21.10;40.10
24636;DHT22;12772;49.794;10.024;2022-09-09T19:08:05;21.10;40.10
24636;DHT22;12772;49.794;10.024;2022-09-09T19:12:07;21.10;39.90
24636;DHT22;12772;49.794;10.024;2022-09-09T19:16:12;21.00;40.00
24636;DHT22;12772;49.794;10.024;2022-09-09T19:20:14;21.00;40.50
24636;DHT22;12772;49.794;10.024;2022-09-09T19:24:20;21.00;40.40
24636;DHT22;12772;49.794;10.024;2022-09-09T19:28:22;20.90;40.50
24636;DHT22;12772;49.794;10.024;2022-09-09T19:32:25;20.90;40.80
24636;DHT22;12772;49.794;10.024;2022-09-09T19:36:27;20.90;41.00
24636;DHT22;12772;49.794;10.024;2022-09-09T19:40:29;20.80;41.20
24636;DHT22;12772;49.794;10.024;2022-09-09T19:44:32;20.80;41.60
24636;DHT22;12772;49.794;10.024;2022-09-09T19:48:35;20.70;42.00
24636;DHT22;12772;49.794;10.024;2022-09-09T19:52:38;20.60;41.90
24636;DHT22;12772;49.794;10.024;2022-09-09T19:56:41;20.60;41.90
24636;DHT22;12772;49.794;10.024;2022-09-09T20:00:44;20.50;41.80
24636;DHT22;12772;49.794;10.024;2022-09-09T20:04:46;20.30;41.50
24636;DHT22;12772;49.794;10.024;2022-09-09T20:08:48;20.20;41.50
24636;DHT22;12772;49.794;10.024;2022-09-09T20:12:51;20.00;42.20
24636;DHT22;12772;49.794;10.024;2022-09-09T20:16:53;19.90;42.90
24636;DHT22;12772;49.794;10.024;2022-09-09T20:21:06;19.80;43.40
24636;DHT22;12772;49.794;10.024;2022-09-09T20:25:09;19.70;43.80
24636;DHT22;12772;49.794;10.024;2022-09-09T20:29:13;19.70;44.10
24636;DHT22;12772;49.794;10.024;2022-09-09T20:33:16;19.60;44.30
24636;DHT22;12772;49.794;10.024;2022-09-09T20:37:18;19.50;44.50
24636;DHT22;12772;49.794;10.024;2022-09-09T20:41:21;19.40;44.70
24636;DHT22;12772;49.794;10.024;2022-09-09T20:45:23;19.40;45.00
24636;DHT22;12772;49.794;10.024;2022-09-09T20:49:25;19.30;45.00
24636;DHT22;12772;49.794;10.024;2022-09-09T20:53:27;19.40;45.30
24636;DHT22;12772;49.794;10.024;2022-09-09T20:57:30;19.40;45.40
24636;DHT22;12772;49.794;10.024;2022-09-09T21:01:32;19.40;45.30
24636;DHT22;12772;49.794;10.024;2022-09-09T21:05:35;19.40;45.20
24636;DHT22;12772;49.794;10.024;2022-09-09T21:09:38;19.40;45.40
24636;DHT22;12772;49.794;10.024;2022-09-09T21:13:42;19.40;45.40
24636;DHT22;12772;49.794;10.024;2022-09-09T21:17:44;19.40;45.50
24636;DHT22;12772;49.794;10.024;2022-09-09T21:21:46;19.40;45.50
24636;DHT22;12772;49.794;10.024;2022-09-09T21:25:49;19.40;45.40
24636;DHT22;12772;49.794;10.024;2022-09-09T21:29:51;19.40;45.30
24636;DHT22;12772;49.794;10.024;2022-09-09T21:33:53;19.30;45.30
24636;DHT22;12772;49.794;10.024;2022-09-09T21:37:55;19.30;45.50
24636;DHT22;12772;49.794;10.024;2022-09-09T21:41:57;19.20;45.40
24636;DHT22;12772;49.794;10.024;2022-09-09T21:46:13;19.20;45.40
24636;DHT22;12772;49.794;10.024;2022-09-09T21:50:15;19.20;45.50
24636;DHT22;12772;49.794;10.024;2022-09-09T21:54:20;19.20;45.60
24636;DHT22;12772;49.794;10.024;2022-09-09T21:58:22;19.20;45.80
24636;DHT22;12772;49.794;10.024;2022-09-09T22:02:24;19.30;46.00
24636;DHT22;12772;49.794;10.024;2022-09-09T22:06:27;19.20;46.50
24636;DHT22;12772;49.794;10.024;2022-09-09T22:10:29;19.20;47.30
24636;DHT22;12772;49.794;10.024;2022-09-09T22:14:31;19.10;48.60
24636;DHT22;12772;49.794;10.024;2022-09-09T22:18:34;19.10;48.40
24636;DHT22;12772;49.794;10.024;2022-09-09T22:22:37;19.00;48.50
24636;DHT22;12772;49.794;10.024;2022-09-09T22:26:39;19.00;48.80
24636;DHT22;12772;49.794;10.024;2022-09-09T22:30:42;19.10;48.90
24636;DHT22;12772;49.794;10.024;2022-09-09T22:34:44;19.00;49.20
24636;DHT22;12772;49.794;10.024;2022-09-09T22:38:47;19.00;49.00
24636;DHT22;12772;49.794;10.024;2022-09-09T22:42:51;18.90;49.20
24636;DHT22;12772;49.794;10.024;2022-09-09T22:46:54;18.90;49.40
24636;DHT22;12772;49.794;10.024;2022-09-09T22:51:07;18.80;49.70
24636;DHT22;12772;49.794;10.024;2022-09-09T22:55:10;18.70;49.80
24636;DHT22;12772;49.794;10.024;2022-09-09T22:59:12;18.70;50.10
24636;DHT22;12772;49.794;10.024;2022-09-09T23:03:15;18.70;50.00
24636;DHT22;12772;49.794;10.024;2022-09-09T23:07:17;18.80;50.20
24636;DHT22;12772;49.794;10.024;2022-09-09T23:11:32;18.80;49.80
24636;DHT22;12772;49.794;10.024;2022-09-09T23:15:34;18.70;49.70
24636;DHT22;12772;49.794;10.024;2022-09-09T23:19:37;18.70;50.30
24636;DHT22;12772;49.794;10.024;2022-09-09T23:23:40;18.60;50.20
24636;DHT22;12772;49.794;10.024;2022-09-09T23:27:44;18.50;50.70
24636;DHT22;12772;49.794;10.024;2022-09-09T23:31:46;18.40;50.70
24636;DHT22;12772;49.794;10.024;2022-09-09T23:35:56;18.30;51.00
24636;DHT22;12772;49.794;10.024;2022-09-09T23:39:59;18.30;51.30
24636;DHT22;12772;49.794;10.024;2022-09-09T23:44:02;18.20;51.50
24636;DHT22;12772;49.794;10.024;2022-09-09T23:48:04;18.30;51.40
24636;DHT22;12772;49.794;10.024;2022-09-09T23:52:06;18.20;51.50
24636;DHT22;12772;49.794;10.024;2022-09-09T23:56:08;18.30;51.80
